Time;durP1;ratioP1;P1;durP2;ratioP2;P2;SDS_P1;SDS_P2;PMS_P1;PMS_P2;Temp;Humidity;BMP_temperature;BMP_pressure;BME280_temperature;BME280_humidity;BME280_pressure;Samples;Min_cycle;Max_cycle;Signal;HPM_P1;HPM_P2
2022/10/21 00:01:15;;;;;;;10.83;7.00;;;5.70;1.00;;;;;;10477905;28;20245;-80
2022/10/21 00:06:37;;;;;;;11.70;7.17;;;5.70;77.90;;;;;;10477897;28;20491;-79
2022/10/21 00:11:58;;;;;;;11.87;7.23;;;5.60;99.90;;;;;;10481666;28;20195;-80
2022/10/21 00:17:20;;;;;;;9.77;6.60;;;5.60;99.90;;;;;;10536025;28;20563;-79
2022/10/21 00:22:41;;;;;;;11.73;7.10;;;5.60;99.90;;;;;;10535693;28;20199;-79
2022/10/21 00:28:02;;;;;;;11.13;6.83;;;5.60;99.90;;;;;;10504203;28;20201;-79
2022/10/21 00:33:24;;;;;;;10.27;6.40;;;5.60;99.90;;;;;;10509387;28;20250;-79
2022/10/21 00:38:47;;;;;;;9.67;6.83;;;5.50;99.90;;;;;;10477625;28;20217;-79
2022/10/21 00:44:12;;;;;;;13.87;7.07;;;5.50;99.90;;;;;;10476920;28;20212;-82
2022/10/21 00:49:57;;;;;;;12.50;7.33;;;5.40;1.00;;;;;;10490945;28;20205;-79
2022/10/21 00:55:18;;;;;;;12.67;7.90;;;;;;;;;;10448679;28;20396;-80
2022/10/21 01:00:40;;;;;;;11.73;8.03;;;;;;;;;;10462645;28;20222;-79
2022/10/21 01:06:03;;;;;;;15.97;8.97;;;;;;;;;;10476834;28;20184;-82
2022/10/21 01:11:26;;;;;;;12.37;8.20;;;;;;;;;;10490609;28;20205;-84
2022/10/21 01:17:06;;;;;;;13.70;8.43;;;;;;;;;;10523931;28;20606;-79
2022/10/21 01:23:08;;;;;;;12.40;8.00;;;5.30;99.90;;;;;;10525389;28;20224;-80
2022/10/21 01:28:30;;;;;;;14.50;8.60;;;;;;;;;;10511222;28;20477;-80
2022/10/21 01:33:59;;;;;;;11.13;8.23;;;;;;;;;;10526075;28;20553;-80
2022/10/21 01:39:28;;;;;;;12.50;8.20;;;5.10;1.00;;;;;;10539258;28;20194;-80
2022/10/21 01:44:56;;;;;;;15.33;7.83;;;;;;;;;;10524950;28;20438;-80
2022/10/21 01:50:23;;;;;;;11.53;7.83;;;;;;;;;;10524598;28;20209;-80
2022/10/21 01:55:45;;;;;;;12.53;7.80;;;;;;;;;;10541311;28;20252;-81
2022/10/21 02:01:08;;;;;;;12.50;8.23;;;;;;;;;;10525512;28;20190;-79
2022/10/21 02:06:30;;;;;;;13.37;8.63;;;;;;;;;;10538530;28;20549;-86
2022/10/21 02:11:52;;;;;;;14.87;7.93;;;;;;;;;;10540483;28;20504;-79
2022/10/21 02:17:15;;;;;;;12.63;8.70;;;;;;;;;;10538185;28;20232;-79
2022/10/21 02:22:39;;;;;;;11.37;7.97;;;;;;;;;;10523242;28;20205;-80
2022/10/21 02:28:00;;;;;;;13.40;8.00;;;;;;;;;;10493445;28;20198;-79
2022/10/21 02:33:42;;;;;;;16.03;7.60;;;;;;;;;;10467021;28;20306;-81
2022/10/21 02:39:10;;;;;;;13.33;8.43;;;;;;;;;;10369997;28;20222;-80
2022/10/21 02:44:31;;;;;;;13.13;8.17;;;;;;;;;;10356201;28;20239;-80
2022/10/21 02:49:53;;;;;;;14.97;8.47;;;;;;;;;;10352919;28;20217;-81
2022/10/21 02:55:14;;;;;;;13.20;8.53;;;;;;;;;;10355566;28;20257;-79
2022/10/21 03:00:35;;;;;;;17.17;8.97;;;;;;;;;;10352629;28;20311;-80
2022/10/21 03:05:57;;;;;;;13.63;8.20;;;;;;;;;;10338180;28;20212;-84
2022/10/21 03:11:18;;;;;;;12.30;7.67;;;;;;;;;;10369274;28;20230;-79
2022/10/21 03:16:40;;;;;;;15.87;9.27;;;5.40;1.00;;;;;;10466637;28;20260;-80
2022/10/21 03:22:01;;;;;;;16.03;10.73;;;5.20;1.00;;;;;;10482181;28;20203;-81
2022/10/21 03:27:22;;;;;;;14.53;9.00;;;5.10;1.00;;;;;;10505813;28;20198;-80
2022/10/21 03:32:43;;;;;;;15.33;9.20;;;5.10;1.00;;;;;;10534980;28;20405;-80
2022/10/21 03:38:05;;;;;;;13.83;8.23;;;5.10;1.00;;;;;;10519562;28;20208;-80
2022/10/21 03:43:26;;;;;;;12.83;7.97;;;5.10;9.30;;;;;;10520202;28;20381;-80
2022/10/21 03:48:47;;;;;;;13.47;8.30;;;5.10;30.40;;;;;;10536460;28;20301;-80
2022/10/21 03:54:08;;;;;;;13.80;8.63;;;5.00;1.00;;;;;;10505689;28;20230;-80
2022/10/21 03:59:29;;;;;;;14.97;9.53;;;5.00;1.00;;;;;;10536719;28;20205;-80
2022/10/21 04:04:51;;;;;;;13.90;8.80;;;;;;;;;;10519548;28;20264;-81
2022/10/21 04:10:12;;;;;;;18.80;10.10;;;;;;;;;;10533915;28;20275;-80
2022/10/21 04:15:34;;;;;;;17.53;10.23;;;;;;;;;;10508789;28;20257;-80
2022/10/21 04:20:55;;;;;;;16.57;9.77;;;;;;;;;;10519207;28;20551;-80
2022/10/21 04:26:17;;;;;;;15.60;10.23;;;;;;;;;;10503844;28;20512;-84
2022/10/21 04:31:38;;;;;;;20.07;9.47;;;;;;;;;;10476875;28;20541;-83
2022/10/21 04:37:00;;;;;;;17.17;10.73;;;;;;;;;;10463122;28;20229;-80
2022/10/21 04:42:22;;;;;;;15.37;9.80;;;;;;;;;;10463249;28;20205;-81
2022/10/21 04:47:44;;;;;;;12.80;8.80;;;;;;;;;;10477663;28;20264;-80
2022/10/21 04:53:05;;;;;;;12.63;8.93;;;;;;;;;;10499899;28;20273;-79
2022/10/21 04:58:26;;;;;;;16.93;9.17;;;;;;;;;;10485003;28;20209;-81
2022/10/21 05:03:48;;;;;;;17.90;10.33;;;;;;;;;;10457398;28;20300;-79
2022/10/21 05:09:09;;;;;;;16.07;9.50;;;;;;;;;;10487083;28;20209;-79
2022/10/21 05:14:30;;;;;;;16.03;10.50;;;;;;;;;;10527692;28;20249;-79
2022/10/21 05:19:52;;;;;;;20.53;12.90;;;;;;;;;;10526127;28;20247;-81
2022/10/21 05:25:13;;;;;;;34.77;19.37;;;;;;;;;;10542816;28;20216;-81
2022/10/21 05:30:35;;;;;;;23.77;13.43;;;;;;;;;;10510859;28;20251;-82
2022/10/21 05:36:01;;;;;;;19.23;12.03;;;;;;;;;;10510994;28;20254;-81
2022/10/21 05:41:22;;;;;;;18.73;10.67;;;;;;;;;;10510963;28;20208;-80
2022/10/21 05:46:44;;;;;;;22.53;14.07;;;;;;;;;;10524961;28;20231;-82
2022/10/21 05:52:05;;;;;;;20.93;11.23;;;;;;;;;;10543338;28;20453;-80
2022/10/21 05:57:27;;;;;;;17.50;10.43;;;;;;;;;;10524059;28;20268;-80
2022/10/21 06:02:48;;;;;;;14.10;9.40;;;;;;;;;;10509416;28;20377;-81
2022/10/21 06:08:10;;;;;;;16.17;9.90;;;;;;;;;;10509785;28;20255;-83
2022/10/21 06:13:31;;;;;;;16.73;9.77;;;;;;;;;;10508762;28;20248;-80
2022/10/21 06:18:53;;;;;;;21.50;12.67;;;;;;;;;;10468051;28;20463;-81
2022/10/21 06:24:15;;;;;;;18.20;10.23;;;;;;;;;;10467573;28;20206;-82
2022/10/21 06:29:36;;;;;;;19.60;10.80;;;;;;;;;;10498033;28;20530;-81
2022/10/21 06:34:58;;;;;;;15.27;10.00;;;;;;;;;;10498002;28;20292;-82
2022/10/21 06:40:19;;;;;;;18.63;11.00;;;;;;;;;;10481171;28;20202;-80
2022/10/21 06:45:41;;;;;;;18.97;11.07;;;;;;;;;;10480987;28;20277;-80
2022/10/21 06:51:05;;;;;;;17.53;11.57;;;;;;;;;;10466739;28;20205;-84
2022/10/21 06:56:26;;;;;;;19.67;12.63;;;;;;;;;;10480433;28;20230;-81
2022/10/21 07:01:48;;;;;;;20.43;13.00;;;;;;;;;;10466415;28;20209;-82
2022/10/21 07:07:19;;;;;;;28.43;15.13;;;;;;;;;;10494579;28;20197;-81
2022/10/21 07:12:40;;;;;;;16.47;10.67;;;;;;;;;;10502826;28;20391;-81
2022/10/21 07:18:02;;;;;;;22.53;12.50;;;;;;;;;;10507473;28;20236;-81
2022/10/21 07:23:23;;;;;;;25.20;14.97;;;;;;;;;;10472048;28;20224;-81
2022/10/21 07:28:46;;;;;;;23.97;13.63;;;;;;;;;;10493024;28;20206;-80
2022/10/21 07:34:08;;;;;;;31.07;17.90;;;;;;;;;;10501827;28;20295;-81
2022/10/21 07:39:29;;;;;;;41.03;20.30;;;;;;;;;;10500374;28;20213;-81
2022/10/21 07:44:52;;;;;;;19.63;11.70;;;;;;;;;;10514611;28;20206;-82
2022/10/21 07:50:15;;;;;;;30.13;14.93;;;;;;;;;;10501454;28;20290;-82
2022/10/21 07:55:37;;;;;;;19.97;12.53;;;;;;;;;;10514526;28;20263;-82
2022/10/21 08:01:02;;;;;;;29.80;15.90;;;;;;;;;;10529106;28;20252;-84
2022/10/21 08:06:25;;;;;;;28.07;15.17;;;;;;;;;;10486873;28;20207;-84
2022/10/21 08:11:47;;;;;;;38.47;19.50;;;;;;;;;;10515047;28;20281;-82
2022/10/21 08:17:09;;;;;;;24.07;14.60;;;;;;;;;;10499598;28;20230;-82
2022/10/21 08:22:30;;;;;;;27.60;15.77;;;;;;;;;;10512627;28;20278;-82
2022/10/21 08:27:52;;;;;;;29.23;16.40;;;;;;;;;;10514014;28;20220;-82
2022/10/21 08:33:14;;;;;;;23.37;14.97;;;;;;;;;;10501936;28;20507;-81
2022/10/21 08:38:36;;;;;;;25.70;13.30;;;;;;;;;;10510450;28;20246;-83
2022/10/21 08:44:01;;;;;;;19.23;12.87;;;;;;;;;;10514168;28;20435;-82
2022/10/21 08:49:26;;;;;;;20.40;11.67;;;;;;;;;;10499577;28;20214;-84
2022/10/21 08:54:57;;;;;;;17.53;10.73;;;6.80;1.00;;;;;;10498858;28;20222;-83
2022/10/21 09:00:21;;;;;;;32.10;16.13;;;6.80;1.00;;;;;;10499056;28;20555;-86
2022/10/21 09:05:54;;;;;;;38.33;20.80;;;6.70;1.00;;;;;;10512917;28;20207;-82
2022/10/21 09:11:19;;;;;;;19.93;12.57;;;6.70;99.90;;;;;;10503746;28;20203;-83
2022/10/21 09:17:04;;;;;;;24.17;13.47;;;6.60;99.90;;;;;;10483398;28;20230;-81
2022/10/21 09:22:37;;;;;;;26.97;16.77;;;6.40;1.00;;;;;;10484301;28;20206;-86
2022/10/21 09:28:06;;;;;;;18.43;11.90;;;6.60;1.00;;;;;;10521283;28;20237;-83
2022/10/21 09:33:30;;;;;;;17.27;11.90;;;6.60;1.00;;;;;;10516885;28;20530;-85
2022/10/21 09:38:55;;;;;;;17.83;11.47;;;6.60;1.00;;;;;;10525054;28;20255;-83
2022/10/21 09:44:19;;;;;;;26.57;16.60;;;6.60;1.00;;;;;;10508374;28;20257;-83
2022/10/21 09:49:47;;;;;;;23.03;15.77;;;6.80;1.00;;;;;;10505167;28;20302;-84
2022/10/21 09:55:28;;;;;;;37.50;21.17;;;7.20;1.00;;;;;;10532198;28;20423;-83
2022/10/21 10:00:49;;;;;;;28.50;17.47;;;7.10;1.00;;;;;;10519041;28;20213;-84
2022/10/21 10:06:11;;;;;;;23.53;16.03;;;7.10;1.00;;;;;;10533328;28;20192;-86
2022/10/21 10:11:32;;;;;;;24.43;16.13;;;7.20;1.00;;;;;;10518263;28;20192;-84
2022/10/21 10:16:55;;;;;;;29.93;17.47;;;7.10;1.00;;;;;;10482897;28;20235;-85
2022/10/21 10:22:16;;;;;;;30.93;20.63;;;7.10;1.00;;;;;;10476354;28;20561;-84
2022/10/21 10:27:48;;;;;;;28.03;18.00;;;7.00;1.00;;;;;;10502204;28;20202;-84
2022/10/21 10:33:15;;;;;;;57.53;33.03;;;7.00;1.00;;;;;;10518264;28;20397;-85
2022/10/21 10:38:51;;;;;;;42.40;29.67;;;7.20;1.00;;;;;;10520734;28;20239;-84
2022/10/21 10:44:27;;;;;;;29.47;21.23;;;7.20;1.00;;;;;;10534557;28;20294;-86
2022/10/21 10:49:50;;;;;;;24.17;16.10;;;7.30;1.00;;;;;;10502912;28;20211;-85
2022/10/21 10:55:11;;;;;;;23.40;15.33;;;7.40;1.00;;;;;;10531837;28;20235;-84
2022/10/21 11:00:41;;;;;;;24.07;15.93;;;7.30;1.00;;;;;;10531800;28;20193;-84
2022/10/21 11:06:13;;;;;;;23.00;15.60;;;7.30;1.00;;;;;;10516696;28;20229;-85
2022/10/21 11:11:42;;;;;;;21.00;13.53;;;7.20;1.00;;;;;;10533207;28;20222;-85
2022/10/21 11:17:17;;;;;;;25.60;17.87;;;7.20;1.00;;;;;;10514731;28;20234;-85
2022/10/21 11:23:11;;;;;;;30.27;19.60;;;7.20;99.90;;;;;;10516154;28;20203;-85
2022/10/21 11:28:48;;;;;;;41.47;23.53;;;7.30;99.90;;;;;;10502014;28;20191;-86
2022/10/21 11:34:22;;;;;;;29.90;17.63;;;7.40;99.90;;;;;;10515741;28;20267;-85
2022/10/21 11:40:27;;;;;;;28.33;17.33;;;7.50;99.90;;;;;;10516341;28;20202;-86
2022/10/21 11:46:07;;;;;;;39.90;24.23;;;7.60;99.90;;;;;;10388846;28;20260;-84
2022/10/21 11:51:43;;;;;;;29.63;18.57;;;7.50;99.90;;;;;;10402146;28;20228;-83
2022/10/21 11:57:12;;;;;;;26.80;17.53;;;7.70;99.90;;;;;;10347420;28;20229;-86
2022/10/21 12:02:40;;;;;;;24.47;15.80;;;7.70;99.90;;;;;;10352709;28;20213;-83
2022/10/21 12:08:20;;;;;;;21.63;14.50;;;7.80;99.90;;;;;;10332898;28;20212;-84
2022/10/21 12:13:45;;;;;;;20.70;13.93;;;8.00;99.90;;;;;;10363672;28;20229;-84
2022/10/21 12:19:12;;;;;;;25.57;15.23;;;8.00;99.90;;;;;;10381267;28;20527;-82
2022/10/21 12:24:38;;;;;;;19.53;13.37;;;8.00;99.90;;;;;;10460740;28;20209;-81
2022/10/21 12:30:29;;;;;;;31.20;22.57;;;8.10;99.90;;;;;;10532294;28;20213;-81
2022/10/21 12:36:14;;;;;;;34.93;22.27;;;8.10;99.90;;;;;;10515942;28;20224;-82
2022/10/21 12:41:38;;;;;;;19.63;13.77;;;8.10;99.90;;;;;;10530679;28;20200;-82
2022/10/21 12:47:20;;;;;;;21.37;13.77;;;8.20;99.90;;;;;;10500637;28;20211;-83
2022/10/21 12:52:43;;;;;;;22.63;14.97;;;8.20;99.90;;;;;;10487048;28;20393;-81
2022/10/21 12:58:24;;;;;;;19.80;12.97;;;8.40;99.90;;;;;;10504367;28;20266;-83
2022/10/21 13:03:50;;;;;;;19.70;13.83;;;8.50;99.90;;;;;;10529958;28;20306;-84
2022/10/21 13:09:30;;;;;;;19.53;14.20;;;8.70;99.90;;;;;;10514296;28;20278;-83
2022/10/21 13:15:20;;;;;;;19.90;14.43;;;8.70;99.90;;;;;;10517328;28;20250;-79
2022/10/21 13:20:44;;;;;;;20.50;14.10;;;8.90;99.90;;;;;;10515877;28;20241;-81
2022/10/21 13:26:14;;;;;;;27.90;16.27;;;8.80;99.90;;;;;;10505963;28;20199;-82
2022/10/21 13:31:36;;;;;;;26.33;16.70;;;8.70;99.90;;;;;;10491714;28;20580;-84
2022/10/21 13:36:57;;;;;;;28.63;17.73;;;8.80;99.90;;;;;;10535231;28;20249;-82
2022/10/21 13:42:19;;;;;;;42.33;21.17;;;8.80;99.90;;;;;;10533707;28;20207;-87
2022/10/21 13:47:41;;;;;;;31.37;18.30;;;8.70;99.90;;;;;;10549585;28;20379;-81
2022/10/21 13:53:17;;;;;;;28.57;18.60;;;8.60;99.90;;;;;;10547286;28;20366;-84
2022/10/21 13:58:38;;;;;;;26.90;16.60;;;8.50;99.90;;;;;;10492136;28;20233;-82
2022/10/21 14:04:19;;;;;;;27.03;16.93;;;8.60;99.90;;;;;;10504595;28;20249;-82
2022/10/21 14:09:45;;;;;;;30.37;18.40;;;8.60;99.90;;;;;;10518564;28;20234;-84
2022/10/21 14:15:14;;;;;;;32.53;19.73;;;8.60;99.90;;;;;;10514969;28;20236;-84
2022/10/21 14:20:36;;;;;;;31.57;18.20;;;8.70;99.90;;;;;;10504152;28;20231;-82
2022/10/21 14:26:07;;;;;;;29.60;18.07;;;8.60;99.90;;;;;;10504219;28;20283;-84
2022/10/21 14:31:28;;;;;;;25.03;15.33;;;8.60;99.90;;;;;;10518265;28;20235;-81
2022/10/21 14:37:10;;;;;;;27.30;17.27;;;8.60;99.90;;;;;;10504408;28;20277;-81
2022/10/21 14:42:32;;;;;;;24.13;15.47;;;8.70;99.90;;;;;;10517260;28;20541;-81
2022/10/21 14:48:10;;;;;;;30.23;18.47;;;8.60;99.90;;;;;;10531639;28;20193;-82
2022/10/21 14:53:36;;;;;;;23.87;15.60;;;8.60;99.90;;;;;;10535083;28;20185;-82
2022/10/21 14:59:22;;;;;;;24.53;15.93;;;8.70;99.90;;;;;;10511088;28;20223;-81
2022/10/21 15:04:52;;;;;;;29.47;18.33;;;8.70;99.90;;;;;;10488313;28;20260;-82
2022/10/21 15:10:18;;;;;;;31.03;19.67;;;8.70;99.90;;;;;;10488340;28;20205;-81
2022/10/21 15:15:39;;;;;;;28.17;18.30;;;8.70;99.90;;;;;;10486526;28;20247;-89
2022/10/21 15:21:08;;;;;;;30.10;18.87;;;8.60;99.90;;;;;;10508346;28;20188;-86
2022/10/21 15:26:36;;;;;;;32.50;19.87;;;8.60;99.90;;;;;;10486707;28;20258;-80
2022/10/21 15:31:59;;;;;;;29.73;18.27;;;8.60;99.90;;;;;;10542274;28;20252;-81
2022/10/21 15:37:20;;;;;;;29.87;20.13;;;8.70;99.90;;;;;;10509304;28;20292;-86
2022/10/21 15:42:42;;;;;;;33.03;20.10;;;8.70;99.90;;;;;;10530632;28;20438;-87
2022/10/21 15:48:08;;;;;;;42.83;24.33;;;8.60;99.90;;;;;;10526104;28;20259;-79
2022/10/21 15:53:29;;;;;;;49.30;28.77;;;8.60;99.90;;;;;;10496640;28;20193;-80
2022/10/21 15:58:50;;;;;;;45.60;27.73;;;8.60;99.90;;;;;;10521617;28;20259;-81
2022/10/21 16:04:12;;;;;;;31.73;21.17;;;8.60;99.90;;;;;;10534887;28;20188;-81
2022/10/21 16:09:33;;;;;;;29.43;18.80;;;8.60;99.90;;;;;;10520256;28;20254;-82
2022/10/21 16:14:54;;;;;;;31.37;20.63;;;8.60;99.90;;;;;;10521666;28;20234;-81
2022/10/21 16:20:22;;;;;;;24.27;16.67;;;8.50;99.90;;;;;;10508113;28;20253;-85
2022/10/21 16:25:43;;;;;;;32.60;19.40;;;8.50;99.90;;;;;;10515357;28;20200;-80
2022/10/21 16:31:08;;;;;;;34.53;22.60;;;8.50;99.90;;;;;;10479589;28;20244;-81
2022/10/21 16:36:30;;;;;;;33.83;20.23;;;8.50;99.90;;;;;;10463389;28;20270;-86
2022/10/21 16:41:52;;;;;;;31.93;19.63;;;8.50;99.90;;;;;;10492087;28;20236;-85
2022/10/21 16:47:19;;;;;;;33.53;21.70;;;8.50;99.90;;;;;;10492470;28;20435;-86
2022/10/21 16:52:40;;;;;;;37.57;23.63;;;8.50;99.90;;;;;;10478731;28;20208;-80
2022/10/21 16:58:01;;;;;;;48.57;25.50;;;8.50;99.90;;;;;;10477639;28;20312;-82
2022/10/21 17:03:23;;;;;;;35.33;20.33;;;8.50;99.90;;;;;;10476811;28;20204;-81
2022/10/21 17:08:44;;;;;;;37.87;20.97;;;8.50;99.90;;;;;;10477086;28;20202;-81
2022/10/21 17:14:07;;;;;;;38.30;20.50;;;8.50;99.90;;;;;;10526573;28;20264;-82
2022/10/21 17:19:28;;;;;;;31.93;18.77;;;8.50;99.90;;;;;;10520561;28;20270;-81
2022/10/21 17:24:49;;;;;;;34.50;20.40;;;8.50;99.90;;;;;;10501469;28;20207;-83
2022/10/21 17:30:11;;;;;;;30.13;18.60;;;8.50;99.90;;;;;;10477569;28;20292;-81
2022/10/21 17:35:32;;;;;;;38.60;22.83;;;8.40;99.90;;;;;;10462123;28;20535;-87
2022/10/21 17:40:53;;;;;;;34.37;20.53;;;8.50;99.90;;;;;;10495566;28;20201;-84
2022/10/21 17:46:23;;;;;;;40.67;22.97;;;8.40;99.90;;;;;;10476070;28;20206;-80
2022/10/21 17:51:44;;;;;;;39.30;23.47;;;8.40;99.90;;;;;;10476224;28;20501;-82
2022/10/21 17:57:05;;;;;;;41.17;25.90;;;8.40;99.90;;;;;;10480164;28;20267;-85
2022/10/21 18:02:32;;;;;;;45.03;25.77;;;8.50;99.90;;;;;;10483514;28;20198;-82
2022/10/21 18:07:54;;;;;;;36.60;21.83;;;8.40;99.90;;;;;;10483148;28;20229;-83
2022/10/21 18:13:16;;;;;;;36.37;23.27;;;8.40;99.90;;;;;;10498712;28;20487;-80
2022/10/21 18:18:38;;;;;;;35.83;24.10;;;8.40;99.90;;;;;;10524379;28;20232;-81
2022/10/21 18:23:59;;;;;;;37.87;21.53;;;8.40;99.90;;;;;;10542012;28;20250;-86
2022/10/21 18:29:21;;;;;;;39.80;22.97;;;8.40;99.90;;;;;;10508144;28;20205;-81
2022/10/21 18:34:42;;;;;;;35.50;23.47;;;8.40;99.90;;;;;;10523599;28;20232;-82
2022/10/21 18:40:04;;;;;;;30.57;20.63;;;8.40;99.90;;;;;;10509269;28;20230;-80
2022/10/21 18:45:25;;;;;;;32.37;21.43;;;8.50;99.90;;;;;;10495266;28;20221;-81
2022/10/21 18:50:47;;;;;;;30.43;19.70;;;8.50;99.90;;;;;;10509047;28;20405;-87
2022/10/21 18:56:14;;;;;;;31.90;20.43;;;8.40;99.90;;;;;;10508722;28;20228;-81
2022/10/21 19:01:35;;;;;;;30.93;20.50;;;8.40;99.90;;;;;;10508975;28;20217;-83
2022/10/21 19:06:57;;;;;;;28.63;18.70;;;8.40;99.90;;;;;;10508209;28;20214;-81
2022/10/21 19:12:18;;;;;;;27.00;18.03;;;8.40;99.90;;;;;;10494108;28;20199;-87
2022/10/21 19:17:42;;;;;;;27.97;18.63;;;8.40;99.90;;;;;;10522337;28;20295;-80
2022/10/21 19:23:03;;;;;;;33.57;20.47;;;8.40;99.90;;;;;;10537409;28;20194;-86
2022/10/21 19:28:26;;;;;;;31.77;19.83;;;8.50;99.90;;;;;;10525933;28;20200;-82
2022/10/21 19:33:47;;;;;;;29.83;19.57;;;8.50;99.90;;;;;;10534954;28;20240;-86
2022/10/21 19:39:08;;;;;;;32.77;19.60;;;8.50;99.90;;;;;;10526098;28;20220;-82
2022/10/21 19:44:30;;;;;;;25.47;17.90;;;8.50;99.90;;;;;;10520479;28;20385;-81
2022/10/21 19:49:51;;;;;;;33.93;20.80;;;8.50;99.90;;;;;;10520955;28;20220;-80
2022/10/21 19:55:12;;;;;;;35.47;23.33;;;8.50;99.90;;;;;;10492691;28;20243;-87
2022/10/21 20:00:35;;;;;;;33.00;21.40;;;8.50;99.90;;;;;;10520137;28;20200;-80
2022/10/21 20:05:56;;;;;;;33.57;20.90;;;8.50;99.90;;;;;;10506143;28;20248;-86
2022/10/21 20:11:19;;;;;;;33.43;20.87;;;8.50;99.90;;;;;;10536835;28;20247;-82
2022/10/21 20:16:41;;;;;;;34.07;21.60;;;8.60;99.90;;;;;;10505911;28;20224;-87
2022/10/21 20:22:02;;;;;;;30.17;20.63;;;8.50;99.90;;;;;;10533576;28;20190;-80
2022/10/21 20:27:24;;;;;;;37.13;23.30;;;8.50;99.90;;;;;;10505458;28;20272;-82
2022/10/21 20:32:45;;;;;;;34.63;22.23;;;8.60;99.90;;;;;;10521574;28;20307;-80
2022/10/21 20:38:08;;;;;;;34.33;21.50;;;8.60;99.90;;;;;;10537060;28;20293;-81
2022/10/21 20:43:29;;;;;;;36.67;23.97;;;8.60;99.90;;;;;;10534078;28;20198;-81
2022/10/21 20:48:52;;;;;;;36.37;21.93;;;8.60;99.90;;;;;;10548711;28;20236;-81
2022/10/21 20:54:16;;;;;;;37.40;22.23;;;8.60;99.90;;;;;;10518807;28;20215;-79
2022/10/21 20:59:37;;;;;;;33.00;19.77;;;8.60;99.90;;;;;;10536347;28;20553;-82
2022/10/21 21:04:58;;;;;;;29.80;20.47;;;8.70;99.90;;;;;;10519026;28;20203;-81
2022/10/21 21:10:20;;;;;;;35.17;21.80;;;8.70;99.90;;;;;;10519817;28;20189;-80
2022/10/21 21:15:40;;;;;;;30.27;20.30;;;8.70;99.90;;;;;;10504370;28;20279;-81
2022/10/21 21:21:04;;;;;;;29.57;19.80;;;8.60;99.90;;;;;;10504396;28;20239;-83
2022/10/21 21:26:28;;;;;;;28.10;18.60;;;8.60;99.90;;;;;;10519538;28;20189;-82
2022/10/21 21:31:50;;;;;;;31.10;19.90;;;8.70;99.90;;;;;;10534554;28;20236;-81
2022/10/21 21:37:11;;;;;;;33.03;20.47;;;8.60;99.90;;;;;;10525751;28;20246;-86
2022/10/21 21:42:32;;;;;;;29.20;19.50;;;8.70;99.90;;;;;;10525082;28;20243;-86
2022/10/21 21:47:53;;;;;;;35.67;22.97;;;8.70;99.90;;;;;;10525387;28;20250;-87
2022/10/21 21:53:17;;;;;;;31.73;22.33;;;8.70;99.90;;;;;;10524995;28;20557;-81
2022/10/21 21:58:40;;;;;;;31.10;20.23;;;8.70;99.90;;;;;;10539149;28;20256;-81
2022/10/21 22:04:01;;;;;;;31.50;20.50;;;8.70;99.90;;;;;;10524816;28;20208;-84
2022/10/21 22:09:23;;;;;;;32.90;21.70;;;8.80;99.90;;;;;;10511368;28;20246;-85
2022/10/21 22:14:44;;;;;;;31.97;20.73;;;8.70;99.90;;;;;;10525566;28;20201;-84
2022/10/21 22:20:06;;;;;;;30.67;21.07;;;8.80;99.90;;;;;;10541090;28;20225;-80
2022/10/21 22:25:27;;;;;;;29.67;20.70;;;8.80;99.90;;;;;;10530465;28;20414;-87
2022/10/21 22:30:59;;;;;;;30.23;19.83;;;8.80;99.90;;;;;;10482507;28;20209;-87
2022/10/21 22:36:20;;;;;;;29.70;21.03;;;8.80;99.90;;;;;;10496531;28;20319;-86
2022/10/21 22:41:41;;;;;;;31.30;20.40;;;8.80;99.90;;;;;;10481763;28;20270;-87
2022/10/21 22:47:02;;;;;;;31.70;21.17;;;8.90;99.90;;;;;;10495985;28;20216;-78
2022/10/21 22:52:23;;;;;;;39.03;21.87;;;8.90;99.90;;;;;;10496824;28;20228;-82
2022/10/21 22:57:47;;;;;;;37.17;22.43;;;8.90;99.90;;;;;;10484854;28;20236;-86
2022/10/21 23:03:08;;;;;;;34.67;20.67;;;8.90;99.90;;;;;;10483374;28;20191;-88
2022/10/21 23:08:29;;;;;;;26.23;18.13;;;8.90;99.90;;;;;;10467261;28;20219;-79
2022/10/21 23:13:51;;;;;;;30.43;20.70;;;8.90;99.90;;;;;;10513550;28;20253;-83
2022/10/21 23:19:16;;;;;;;29.93;19.53;;;8.90;99.90;;;;;;10508384;28;20238;-79
2022/10/21 23:24:37;;;;;;;32.23;21.57;;;8.90;99.90;;;;;;10508396;28;20255;-81
2022/10/21 23:29:58;;;;;;;36.27;22.37;;;8.90;99.90;;;;;;10522036;28;20220;-83
2022/10/21 23:35:19;;;;;;;36.77;24.87;;;8.80;99.90;;;;;;10506501;28;20528;-79
2022/10/21 23:40:41;;;;;;;31.47;22.10;;;8.80;99.90;;;;;;10520699;28;20540;-82
2022/10/21 23:46:02;;;;;;;36.20;24.10;;;8.80;99.90;;;;;;10520559;28;20197;-81
2022/10/21 23:51:23;;;;;;;32.33;23.10;;;8.80;99.90;;;;;;10520126;28;20227;-82
2022/10/21 23:56:45;;;;;;;31.27;21.50;;;8.80;99.90;;;;;;10520583;28;20244;-85
